sensor_id;sensor_type;location;lat;lon;timestamp;P1;durP1;ratioP1;P2;durP2;ratioP2
8407;SDS011;4241;48.452;9.216;2023-03-24T00:00:01;458.73;;;167.40;;
8407;SDS011;4241;48.452;9.216;2023-03-24T00:02:30;458.37;;;165.30;;
8407;SDS011;4241;48.452;9.216;2023-03-24T00:05:03;457.53;;;163.63;;
8407;SDS011;4241;48.452;9.216;2023-03-24T00:07:30;457.57;;;163.07;;
8407;SDS011;4241;48.452;9.216;2023-03-24T00:09:58;457.70;;;164.53;;
8407;SDS011;4241;48.452;9.216;2023-03-24T00:12:25;457.87;;;163.60;;
8407;SDS011;4241;48.452;9.216;2023-03-24T00:14:52;457.90;;;164.70;;
8407;SDS011;4241;48.452;9.216;2023-03-24T00:17:19;456.93;;;163.57;;
8407;SDS011;4241;48.452;9.216;2023-03-24T00:19:49;457.67;;;163.53;;
8407;SDS011;4241;48.452;9.216;2023-03-24T00:22:18;457.43;;;163.13;;
8407;SDS011;4241;48.452;9.216;2023-03-24T00:24:45;456.27;;;161.73;;
8407;SDS011;4241;48.452;9.216;2023-03-24T00:27:13;459.43;;;164.77;;
8407;SDS011;4241;48.452;9.216;2023-03-24T00:29:41;456.97;;;163.53;;
8407;SDS011;4241;48.452;9.216;2023-03-24T00:32:08;457.07;;;163.00;;
8407;SDS011;4241;48.452;9.216;2023-03-24T00:34:35;458.17;;;162.87;;
8407;SDS011;4241;48.452;9.216;2023-03-24T00:37:02;456.37;;;161.00;;
8407;SDS011;4241;48.452;9.216;2023-03-24T00:39:31;456.27;;;161.77;;
8407;SDS011;4241;48.452;9.216;2023-03-24T00:41:58;458.77;;;164.77;;
8407;SDS011;4241;48.452;9.216;2023-03-24T00:44:27;458.60;;;164.57;;
8407;SDS011;4241;48.452;9.216;2023-03-24T00:46:54;457.03;;;163.70;;
8407;SDS011;4241;48.452;9.216;2023-03-24T00:49:21;457.90;;;163.83;;
8407;SDS011;4241;48.452;9.216;2023-03-24T00:52:06;457.57;;;162.17;;
8407;SDS011;4241;48.452;9.216;2023-03-24T00:54:36;456.50;;;162.10;;
8407;SDS011;4241;48.452;9.216;2023-03-24T00:57:04;457.60;;;162.17;;
8407;SDS011;4241;48.452;9.216;2023-03-24T00:59:31;455.77;;;161.40;;
8407;SDS011;4241;48.452;9.216;2023-03-24T01:02:07;457.00;;;162.97;;
8407;SDS011;4241;48.452;9.216;2023-03-24T01:04:36;458.07;;;164.37;;
8407;SDS011;4241;48.452;9.216;2023-03-24T01:07:03;455.37;;;162.23;;
8407;SDS011;4241;48.452;9.216;2023-03-24T01:09:31;457.23;;;164.43;;
8407;SDS011;4241;48.452;9.216;2023-03-24T01:12:01;456.80;;;163.00;;
8407;SDS011;4241;48.452;9.216;2023-03-24T01:14:29;454.73;;;160.73;;
8407;SDS011;4241;48.452;9.216;2023-03-24T01:16:56;456.63;;;162.13;;
8407;SDS011;4241;48.452;9.216;2023-03-24T01:19:23;457.50;;;163.13;;
8407;SDS011;4241;48.452;9.216;2023-03-24T01:21:51;456.57;;;162.97;;
8407;SDS011;4241;48.452;9.216;2023-03-24T01:24:18;457.10;;;165.70;;
8407;SDS011;4241;48.452;9.216;2023-03-24T01:26:45;457.97;;;164.50;;
8407;SDS011;4241;48.452;9.216;2023-03-24T01:29:14;458.03;;;165.00;;
8407;SDS011;4241;48.452;9.216;2023-03-24T01:31:41;456.77;;;165.40;;
8407;SDS011;4241;48.452;9.216;2023-03-24T01:34:08;458.63;;;165.17;;
8407;SDS011;4241;48.452;9.216;2023-03-24T01:36:36;458.63;;;166.53;;
8407;SDS011;4241;48.452;9.216;2023-03-24T01:39:03;458.00;;;166.17;;
8407;SDS011;4241;48.452;9.216;2023-03-24T01:41:31;458.50;;;165.07;;
8407;SDS011;4241;48.452;9.216;2023-03-24T01:44:01;458.87;;;165.90;;
8407;SDS011;4241;48.452;9.216;2023-03-24T01:46:44;458.87;;;165.80;;
8407;SDS011;4241;48.452;9.216;2023-03-24T01:49:11;457.83;;;165.70;;
8407;SDS011;4241;48.452;9.216;2023-03-24T01:51:39;457.93;;;164.73;;
8407;SDS011;4241;48.452;9.216;2023-03-24T01:54:09;459.30;;;167.23;;
8407;SDS011;4241;48.452;9.216;2023-03-24T01:56:42;456.97;;;164.60;;
8407;SDS011;4241;48.452;9.216;2023-03-24T01:59:13;457.90;;;165.87;;
8407;SDS011;4241;48.452;9.216;2023-03-24T02:01:44;457.80;;;164.87;;
8407;SDS011;4241;48.452;9.216;2023-03-24T02:04:12;478.40;;;186.30;;
8407;SDS011;4241;48.452;9.216;2023-03-24T02:06:41;458.07;;;165.80;;
8407;SDS011;4241;48.452;9.216;2023-03-24T02:09:11;458.40;;;165.23;;
8407;SDS011;4241;48.452;9.216;2023-03-24T02:11:39;457.67;;;164.83;;
8407;SDS011;4241;48.452;9.216;2023-03-24T02:14:07;458.17;;;163.97;;
8407;SDS011;4241;48.452;9.216;2023-03-24T02:16:51;457.50;;;164.07;;
8407;SDS011;4241;48.452;9.216;2023-03-24T02:19:52;458.20;;;163.77;;
8407;SDS011;4241;48.452;9.216;2023-03-24T02:22:51;457.23;;;164.03;;
8407;SDS011;4241;48.452;9.216;2023-03-24T02:28:44;456.83;;;162.60;;
8407;SDS011;4241;48.452;9.216;2023-03-24T02:31:20;457.40;;;164.53;;
8407;SDS011;4241;48.452;9.216;2023-03-24T02:40:34;455.33;;;160.27;;
8407;SDS011;4241;48.452;9.216;2023-03-24T02:45:59;457.17;;;162.17;;
8407;SDS011;4241;48.452;9.216;2023-03-24T02:48:40;456.70;;;162.43;;
8407;SDS011;4241;48.452;9.216;2023-03-24T02:51:19;456.53;;;161.60;;
8407;SDS011;4241;48.452;9.216;2023-03-24T02:53:53;456.30;;;161.47;;
8407;SDS011;4241;48.452;9.216;2023-03-24T02:56:31;457.97;;;163.17;;
8407;SDS011;4241;48.452;9.216;2023-03-24T02:59:04;456.67;;;161.37;;
8407;SDS011;4241;48.452;9.216;2023-03-24T03:01:33;457.67;;;163.20;;
8407;SDS011;4241;48.452;9.216;2023-03-24T03:04:06;463.13;;;168.07;;
8407;SDS011;4241;48.452;9.216;2023-03-24T03:06:38;456.87;;;161.63;;
8407;SDS011;4241;48.452;9.216;2023-03-24T03:09:09;455.60;;;160.30;;
8407;SDS011;4241;48.452;9.216;2023-03-24T03:11:39;455.50;;;161.47;;
8407;SDS011;4241;48.452;9.216;2023-03-24T03:14:11;455.97;;;162.07;;
8407;SDS011;4241;48.452;9.216;2023-03-24T03:16:43;457.20;;;163.17;;
8407;SDS011;4241;48.452;9.216;2023-03-24T03:19:18;457.00;;;162.63;;
8407;SDS011;4241;48.452;9.216;2023-03-24T03:21:47;457.63;;;162.93;;
8407;SDS011;4241;48.452;9.216;2023-03-24T03:24:16;457.87;;;164.20;;
8407;SDS011;4241;48.452;9.216;2023-03-24T03:26:52;458.17;;;165.30;;
8407;SDS011;4241;48.452;9.216;2023-03-24T03:29:22;458.43;;;163.63;;
8407;SDS011;4241;48.452;9.216;2023-03-24T03:31:54;457.10;;;162.33;;
8407;SDS011;4241;48.452;9.216;2023-03-24T03:34:33;457.23;;;162.70;;
8407;SDS011;4241;48.452;9.216;2023-03-24T03:37:05;457.20;;;164.20;;
8407;SDS011;4241;48.452;9.216;2023-03-24T03:39:37;456.90;;;163.47;;
8407;SDS011;4241;48.452;9.216;2023-03-24T03:42:11;456.97;;;163.70;;
8407;SDS011;4241;48.452;9.216;2023-03-24T03:44:38;458.23;;;162.13;;
8407;SDS011;4241;48.452;9.216;2023-03-24T03:47:05;455.87;;;161.80;;
8407;SDS011;4241;48.452;9.216;2023-03-24T03:49:32;458.27;;;165.03;;
8407;SDS011;4241;48.452;9.216;2023-03-24T03:52:00;458.10;;;164.00;;
8407;SDS011;4241;48.452;9.216;2023-03-24T03:54:27;457.90;;;164.10;;
8407;SDS011;4241;48.452;9.216;2023-03-24T03:56:56;456.40;;;161.97;;
8407;SDS011;4241;48.452;9.216;2023-03-24T03:59:27;459.30;;;165.97;;
8407;SDS011;4241;48.452;9.216;2023-03-24T04:01:57;458.30;;;164.50;;
8407;SDS011;4241;48.452;9.216;2023-03-24T04:07:27;457.70;;;163.53;;
8407;SDS011;4241;48.452;9.216;2023-03-24T04:10:04;456.73;;;162.97;;
8407;SDS011;4241;48.452;9.216;2023-03-24T04:12:48;457.23;;;164.03;;
8407;SDS011;4241;48.452;9.216;2023-03-24T04:15:32;459.03;;;165.93;;
8407;SDS011;4241;48.452;9.216;2023-03-24T04:18:07;458.10;;;164.03;;
8407;SDS011;4241;48.452;9.216;2023-03-24T04:20:44;458.60;;;164.80;;
8407;SDS011;4241;48.452;9.216;2023-03-24T04:23:19;458.77;;;163.50;;
8407;SDS011;4241;48.452;9.216;2023-03-24T04:25:55;457.30;;;164.40;;
8407;SDS011;4241;48.452;9.216;2023-03-24T04:28:31;457.10;;;163.73;;
8407;SDS011;4241;48.452;9.216;2023-03-24T04:31:08;457.73;;;163.97;;
8407;SDS011;4241;48.452;9.216;2023-03-24T04:33:43;458.17;;;165.57;;
8407;SDS011;4241;48.452;9.216;2023-03-24T04:36:15;458.07;;;163.33;;
8407;SDS011;4241;48.452;9.216;2023-03-24T04:38:51;456.80;;;162.67;;
8407;SDS011;4241;48.452;9.216;2023-03-24T04:41:21;458.80;;;165.20;;
8407;SDS011;4241;48.452;9.216;2023-03-24T04:43:50;459.83;;;167.83;;
8407;SDS011;4241;48.452;9.216;2023-03-24T04:46:20;459.37;;;166.90;;
8407;SDS011;4241;48.452;9.216;2023-03-24T04:48:47;458.00;;;164.80;;
8407;SDS011;4241;48.452;9.216;2023-03-24T04:51:15;457.33;;;165.43;;
8407;SDS011;4241;48.452;9.216;2023-03-24T04:53:43;458.70;;;165.23;;
8407;SDS011;4241;48.452;9.216;2023-03-24T04:56:25;458.10;;;164.87;;
8407;SDS011;4241;48.452;9.216;2023-03-24T04:58:55;458.10;;;164.73;;
8407;SDS011;4241;48.452;9.216;2023-03-24T05:01:24;458.27;;;166.70;;
8407;SDS011;4241;48.452;9.216;2023-03-24T05:03:54;458.60;;;165.43;;
8407;SDS011;4241;48.452;9.216;2023-03-24T05:06:21;459.60;;;166.47;;
8407;SDS011;4241;48.452;9.216;2023-03-24T05:08:48;463.77;;;170.27;;
8407;SDS011;4241;48.452;9.216;2023-03-24T05:11:16;460.53;;;168.60;;
8407;SDS011;4241;48.452;9.216;2023-03-24T05:13:43;459.20;;;166.80;;
8407;SDS011;4241;48.452;9.216;2023-03-24T05:16:11;459.43;;;167.50;;
8407;SDS011;4241;48.452;9.216;2023-03-24T05:18:39;460.83;;;170.70;;
8407;SDS011;4241;48.452;9.216;2023-03-24T05:21:06;460.30;;;170.23;;
8407;SDS011;4241;48.452;9.216;2023-03-24T05:23:33;460.90;;;170.40;;
8407;SDS011;4241;48.452;9.216;2023-03-24T05:26:00;459.83;;;169.17;;
8407;SDS011;4241;48.452;9.216;2023-03-24T05:28:27;459.93;;;167.20;;
8407;SDS011;4241;48.452;9.216;2023-03-24T05:30:54;458.80;;;167.40;;
8407;SDS011;4241;48.452;9.216;2023-03-24T05:33:21;458.83;;;167.50;;
8407;SDS011;4241;48.452;9.216;2023-03-24T05:35:49;459.33;;;167.43;;
8407;SDS011;4241;48.452;9.216;2023-03-24T05:38:16;457.80;;;165.63;;
8407;SDS011;4241;48.452;9.216;2023-03-24T05:40:43;458.10;;;164.80;;
8407;SDS011;4241;48.452;9.216;2023-03-24T05:43:11;459.37;;;165.50;;
8407;SDS011;4241;48.452;9.216;2023-03-24T05:45:37;461.00;;;167.03;;
8407;SDS011;4241;48.452;9.216;2023-03-24T05:48:04;458.67;;;163.37;;
8407;SDS011;4241;48.452;9.216;2023-03-24T05:50:31;455.40;;;158.13;;
8407;SDS011;4241;48.452;9.216;2023-03-24T05:53:00;455.53;;;157.27;;
8407;SDS011;4241;48.452;9.216;2023-03-24T05:55:27;462.07;;;162.97;;
8407;SDS011;4241;48.452;9.216;2023-03-24T05:57:54;454.83;;;155.20;;
8407;SDS011;4241;48.452;9.216;2023-03-24T06:00:21;455.53;;;156.13;;
8407;SDS011;4241;48.452;9.216;2023-03-24T06:02:48;454.87;;;155.10;;
8407;SDS011;4241;48.452;9.216;2023-03-24T06:05:15;455.67;;;156.70;;
8407;SDS011;4241;48.452;9.216;2023-03-24T06:07:42;459.03;;;157.97;;
8407;SDS011;4241;48.452;9.216;2023-03-24T06:10:11;453.87;;;153.13;;
8407;SDS011;4241;48.452;9.216;2023-03-24T06:12:38;453.03;;;152.43;;
8407;SDS011;4241;48.452;9.216;2023-03-24T06:15:06;452.70;;;152.83;;
8407;SDS011;4241;48.452;9.216;2023-03-24T06:17:34;452.33;;;151.07;;
8407;SDS011;4241;48.452;9.216;2023-03-24T06:20:02;451.57;;;149.80;;
8407;SDS011;4241;48.452;9.216;2023-03-24T06:22:30;450.70;;;148.60;;
8407;SDS011;4241;48.452;9.216;2023-03-24T06:24:58;451.07;;;149.77;;
8407;SDS011;4241;48.452;9.216;2023-03-24T06:27:27;451.17;;;150.43;;
8407;SDS011;4241;48.452;9.216;2023-03-24T06:29:55;452.47;;;152.10;;
8407;SDS011;4241;48.452;9.216;2023-03-24T06:32:22;452.93;;;151.43;;
8407;SDS011;4241;48.452;9.216;2023-03-24T06:34:49;455.60;;;153.80;;
8407;SDS011;4241;48.452;9.216;2023-03-24T06:37:16;453.33;;;152.50;;
8407;SDS011;4241;48.452;9.216;2023-03-24T06:39:44;451.80;;;150.43;;
8407;SDS011;4241;48.452;9.216;2023-03-24T06:42:11;451.67;;;149.60;;
8407;SDS011;4241;48.452;9.216;2023-03-24T06:44:39;451.63;;;150.43;;
8407;SDS011;4241;48.452;9.216;2023-03-24T06:47:07;456.40;;;154.67;;
8407;SDS011;4241;48.452;9.216;2023-03-24T06:49:34;456.00;;;154.27;;
8407;SDS011;4241;48.452;9.216;2023-03-24T06:52:01;452.03;;;150.20;;
8407;SDS011;4241;48.452;9.216;2023-03-24T06:54:28;450.20;;;148.47;;
8407;SDS011;4241;48.452;9.216;2023-03-24T06:56:55;451.33;;;151.90;;
8407;SDS011;4241;48.452;9.216;2023-03-24T06:59:22;450.40;;;149.87;;
8407;SDS011;4241;48.452;9.216;2023-03-24T07:01:50;452.37;;;152.80;;
8407;SDS011;4241;48.452;9.216;2023-03-24T07:04:18;484.13;;;183.47;;
8407;SDS011;4241;48.452;9.216;2023-03-24T07:06:45;451.40;;;150.40;;
8407;SDS011;4241;48.452;9.216;2023-03-24T07:09:12;451.70;;;149.77;;
8407;SDS011;4241;48.452;9.216;2023-03-24T07:11:39;449.87;;;148.93;;
8407;SDS011;4241;48.452;9.216;2023-03-24T07:14:06;450.60;;;148.63;;
8407;SDS011;4241;48.452;9.216;2023-03-24T07:16:33;451.63;;;150.43;;
8407;SDS011;4241;48.452;9.216;2023-03-24T07:19:01;449.73;;;148.30;;
8407;SDS011;4241;48.452;9.216;2023-03-24T07:21:28;451.17;;;150.53;;
8407;SDS011;4241;48.452;9.216;2023-03-24T07:23:55;450.73;;;149.00;;
8407;SDS011;4241;48.452;9.216;2023-03-24T07:26:22;456.30;;;154.60;;
8407;SDS011;4241;48.452;9.216;2023-03-24T07:28:48;451.80;;;150.03;;
8407;SDS011;4241;48.452;9.216;2023-03-24T07:31:15;449.70;;;147.33;;
8407;SDS011;4241;48.452;9.216;2023-03-24T07:33:42;450.87;;;149.47;;
8407;SDS011;4241;48.452;9.216;2023-03-24T07:36:10;449.13;;;147.60;;
8407;SDS011;4241;48.452;9.216;2023-03-24T07:38:37;450.40;;;149.50;;
8407;SDS011;4241;48.452;9.216;2023-03-24T07:41:04;450.37;;;148.07;;
8407;SDS011;4241;48.452;9.216;2023-03-24T07:43:31;449.17;;;146.97;;
8407;SDS011;4241;48.452;9.216;2023-03-24T07:45:58;449.73;;;148.37;;
8407;SDS011;4241;48.452;9.216;2023-03-24T07:48:24;448.43;;;146.97;;
8407;SDS011;4241;48.452;9.216;2023-03-24T07:50:52;450.73;;;148.00;;
8407;SDS011;4241;48.452;9.216;2023-03-24T07:53:20;450.73;;;148.97;;
8407;SDS011;4241;48.452;9.216;2023-03-24T07:55:47;448.77;;;146.63;;
8407;SDS011;4241;48.452;9.216;2023-03-24T07:58:13;450.63;;;149.40;;
8407;SDS011;4241;48.452;9.216;2023-03-24T08:00:40;449.73;;;148.80;;
8407;SDS011;4241;48.452;9.216;2023-03-24T08:03:10;450.40;;;148.87;;
8407;SDS011;4241;48.452;9.216;2023-03-24T08:05:39;453.20;;;150.23;;
8407;SDS011;4241;48.452;9.216;2023-03-24T08:08:07;450.13;;;147.93;;
8407;SDS011;4241;48.452;9.216;2023-03-24T08:10:36;449.13;;;146.70;;
8407;SDS011;4241;48.452;9.216;2023-03-24T08:13:03;448.20;;;147.07;;
8407;SDS011;4241;48.452;9.216;2023-03-24T08:15:30;455.80;;;154.93;;
8407;SDS011;4241;48.452;9.216;2023-03-24T08:17:56;449.17;;;147.47;;
8407;SDS011;4241;48.452;9.216;2023-03-24T08:20:24;448.63;;;146.60;;
8407;SDS011;4241;48.452;9.216;2023-03-24T08:22:53;449.63;;;147.47;;
8407;SDS011;4241;48.452;9.216;2023-03-24T08:25:21;452.13;;;150.20;;
8407;SDS011;4241;48.452;9.216;2023-03-24T08:27:51;448.73;;;147.10;;
8407;SDS011;4241;48.452;9.216;2023-03-24T08:30:19;449.33;;;146.60;;
8407;SDS011;4241;48.452;9.216;2023-03-24T08:32:47;447.90;;;145.27;;
8407;SDS011;4241;48.452;9.216;2023-03-24T08:35:16;449.87;;;147.63;;
8407;SDS011;4241;48.452;9.216;2023-03-24T08:37:44;448.53;;;146.33;;
8407;SDS011;4241;48.452;9.216;2023-03-24T08:40:12;448.03;;;145.97;;
8407;SDS011;4241;48.452;9.216;2023-03-24T08:42:43;448.23;;;146.50;;
8407;SDS011;4241;48.452;9.216;2023-03-24T08:45:13;450.00;;;147.93;;
8407;SDS011;4241;48.452;9.216;2023-03-24T08:47:41;448.10;;;146.37;;
8407;SDS011;4241;48.452;9.216;2023-03-24T08:50:08;450.67;;;148.27;;
8407;SDS011;4241;48.452;9.216;2023-03-24T08:52:35;447.53;;;146.33;;
8407;SDS011;4241;48.452;9.216;2023-03-24T08:55:02;449.00;;;147.10;;
8407;SDS011;4241;48.452;9.216;2023-03-24T08:57:30;448.27;;;146.53;;
8407;SDS011;4241;48.452;9.216;2023-03-24T08:59:57;448.70;;;148.53;;
8407;SDS011;4241;48.452;9.216;2023-03-24T09:02:25;449.17;;;147.07;;
8407;SDS011;4241;48.452;9.216;2023-03-24T09:04:52;449.30;;;148.37;;
8407;SDS011;4241;48.452;9.216;2023-03-24T09:07:20;449.20;;;146.60;;
8407;SDS011;4241;48.452;9.216;2023-03-24T09:09:47;450.23;;;150.23;;
8407;SDS011;4241;48.452;9.216;2023-03-24T09:12:14;448.33;;;147.57;;
8407;SDS011;4241;48.452;9.216;2023-03-24T09:14:41;449.47;;;149.27;;
8407;SDS011;4241;48.452;9.216;2023-03-24T09:17:14;450.50;;;149.60;;
8407;SDS011;4241;48.452;9.216;2023-03-24T09:19:42;450.47;;;148.87;;
8407;SDS011;4241;48.452;9.216;2023-03-24T09:22:09;449.80;;;147.83;;
8407;SDS011;4241;48.452;9.216;2023-03-24T09:24:36;449.83;;;147.97;;
8407;SDS011;4241;48.452;9.216;2023-03-24T09:27:03;449.67;;;148.03;;
8407;SDS011;4241;48.452;9.216;2023-03-24T09:29:30;448.57;;;147.57;;
8407;SDS011;4241;48.452;9.216;2023-03-24T09:31:57;453.37;;;152.90;;
8407;SDS011;4241;48.452;9.216;2023-03-24T09:34:24;454.33;;;153.77;;
8407;SDS011;4241;48.452;9.216;2023-03-24T09:36:52;452.13;;;152.30;;
8407;SDS011;4241;48.452;9.216;2023-03-24T09:39:19;454.27;;;156.03;;
8407;SDS011;4241;48.452;9.216;2023-03-24T09:41:46;454.47;;;155.93;;
8407;SDS011;4241;48.452;9.216;2023-03-24T09:44:16;456.37;;;158.37;;
8407;SDS011;4241;48.452;9.216;2023-03-24T09:46:50;455.30;;;156.60;;
8407;SDS011;4241;48.452;9.216;2023-03-24T09:49:22;460.77;;;163.17;;
8407;SDS011;4241;48.452;9.216;2023-03-24T09:51:53;455.87;;;160.13;;
8407;SDS011;4241;48.452;9.216;2023-03-24T09:54:25;457.40;;;164.17;;
8407;SDS011;4241;48.452;9.216;2023-03-24T09:56:57;456.93;;;162.77;;
8407;SDS011;4241;48.452;9.216;2023-03-24T09:59:28;457.53;;;163.27;;
8407;SDS011;4241;48.452;9.216;2023-03-24T10:02:00;457.80;;;164.20;;
8407;SDS011;4241;48.452;9.216;2023-03-24T10:04:28;480.90;;;182.10;;
8407;SDS011;4241;48.452;9.216;2023-03-24T10:06:58;457.70;;;163.77;;
8407;SDS011;4241;48.452;9.216;2023-03-24T10:09:33;460.03;;;167.37;;
8407;SDS011;4241;48.452;9.216;2023-03-24T10:12:08;460.13;;;169.00;;
8407;SDS011;4241;48.452;9.216;2023-03-24T10:14:46;461.57;;;171.43;;
8407;SDS011;4241;48.452;9.216;2023-03-24T10:17:22;459.90;;;169.97;;
8407;SDS011;4241;48.452;9.216;2023-03-24T10:19:55;461.53;;;171.17;;
8407;SDS011;4241;48.452;9.216;2023-03-24T10:22:29;461.20;;;171.93;;
8407;SDS011;4241;48.452;9.216;2023-03-24T10:25:02;462.47;;;174.43;;
8407;SDS011;4241;48.452;9.216;2023-03-24T10:27:37;462.73;;;173.13;;
8407;SDS011;4241;48.452;9.216;2023-03-24T10:30:11;461.87;;;174.73;;
8407;SDS011;4241;48.452;9.216;2023-03-24T10:32:42;462.77;;;173.20;;
8407;SDS011;4241;48.452;9.216;2023-03-24T10:35:13;462.47;;;174.00;;
8407;SDS011;4241;48.452;9.216;2023-03-24T10:37:44;460.97;;;171.80;;
8407;SDS011;4241;48.452;9.216;2023-03-24T10:40:15;460.70;;;171.43;;
8407;SDS011;4241;48.452;9.216;2023-03-24T10:42:44;459.97;;;169.63;;
8407;SDS011;4241;48.452;9.216;2023-03-24T10:45:17;461.40;;;171.80;;
8407;SDS011;4241;48.452;9.216;2023-03-24T10:47:52;461.50;;;171.60;;
8407;SDS011;4241;48.452;9.216;2023-03-24T10:50:23;462.33;;;173.83;;
8407;SDS011;4241;48.452;9.216;2023-03-24T10:52:51;464.33;;;173.63;;
8407;SDS011;4241;48.452;9.216;2023-03-24T10:55:19;462.00;;;173.17;;
8407;SDS011;4241;48.452;9.216;2023-03-24T10:57:49;459.83;;;169.07;;
8407;SDS011;4241;48.452;9.216;2023-03-24T11:00:21;460.57;;;170.47;;
8407;SDS011;4241;48.452;9.216;2023-03-24T11:02:55;459.80;;;169.50;;
8407;SDS011;4241;48.452;9.216;2023-03-24T11:05:25;465.27;;;173.57;;
8407;SDS011;4241;48.452;9.216;2023-03-24T11:07:57;460.73;;;168.17;;
8407;SDS011;4241;48.452;9.216;2023-03-24T11:10:37;459.93;;;166.87;;
8407;SDS011;4241;48.452;9.216;2023-03-24T11:13:04;459.43;;;166.73;;
8407;SDS011;4241;48.452;9.216;2023-03-24T11:15:41;460.60;;;165.83;;
8407;SDS011;4241;48.452;9.216;2023-03-24T11:18:18;457.17;;;164.50;;
8407;SDS011;4241;48.452;9.216;2023-03-24T11:20:46;457.67;;;163.90;;
8407;SDS011;4241;48.452;9.216;2023-03-24T11:23:19;458.63;;;165.77;;
8407;SDS011;4241;48.452;9.216;2023-03-24T11:25:52;458.07;;;166.23;;
8407;SDS011;4241;48.452;9.216;2023-03-24T11:28:29;458.23;;;166.73;;
8407;SDS011;4241;48.452;9.216;2023-03-24T11:31:04;459.60;;;166.90;;
8407;SDS011;4241;48.452;9.216;2023-03-24T11:33:33;462.30;;;171.47;;
8407;SDS011;4241;48.452;9.216;2023-03-24T11:36:11;460.80;;;169.97;;
8407;SDS011;4241;48.452;9.216;2023-03-24T11:39:17;459.73;;;168.13;;
8407;SDS011;4241;48.452;9.216;2023-03-24T11:41:58;460.93;;;170.90;;
8407;SDS011;4241;48.452;9.216;2023-03-24T11:44:31;458.97;;;167.80;;
8407;SDS011;4241;48.452;9.216;2023-03-24T11:47:09;461.33;;;170.77;;
8407;SDS011;4241;48.452;9.216;2023-03-24T11:49:39;461.10;;;171.97;;
8407;SDS011;4241;48.452;9.216;2023-03-24T11:52:11;462.87;;;175.63;;
8407;SDS011;4241;48.452;9.216;2023-03-24T11:54:46;463.37;;;174.93;;
8407;SDS011;4241;48.452;9.216;2023-03-24T11:57:13;462.17;;;173.73;;
8407;SDS011;4241;48.452;9.216;2023-03-24T11:59:47;462.73;;;174.87;;
8407;SDS011;4241;48.452;9.216;2023-03-24T12:02:23;460.93;;;172.77;;
8407;SDS011;4241;48.452;9.216;2023-03-24T12:05:11;460.53;;;171.77;;
8407;SDS011;4241;48.452;9.216;2023-03-24T12:07:52;463.53;;;175.97;;
8407;SDS011;4241;48.452;9.216;2023-03-24T12:10:49;463.17;;;173.87;;
8407;SDS011;4241;48.452;9.216;2023-03-24T12:13:25;461.27;;;170.87;;
8407;SDS011;4241;48.452;9.216;2023-03-24T12:15:59;460.93;;;169.47;;
8407;SDS011;4241;48.452;9.216;2023-03-24T12:18:36;461.30;;;170.03;;
8407;SDS011;4241;48.452;9.216;2023-03-24T12:21:17;459.87;;;167.07;;
8407;SDS011;4241;48.452;9.216;2023-03-24T12:23:56;461.33;;;168.30;;
8407;SDS011;4241;48.452;9.216;2023-03-24T12:26:28;458.33;;;164.93;;
8407;SDS011;4241;48.452;9.216;2023-03-24T12:32:12;461.63;;;167.47;;
8407;SDS011;4241;48.452;9.216;2023-03-24T12:34:53;457.67;;;163.17;;
8407;SDS011;4241;48.452;9.216;2023-03-24T12:37:45;459.20;;;167.13;;
8407;SDS011;4241;48.452;9.216;2023-03-24T12:40:28;460.93;;;168.13;;
8407;SDS011;4241;48.452;9.216;2023-03-24T12:43:17;463.30;;;170.07;;
8407;SDS011;4241;48.452;9.216;2023-03-24T12:45:52;459.50;;;166.73;;
8407;SDS011;4241;48.452;9.216;2023-03-24T12:48:34;460.60;;;168.53;;
8407;SDS011;4241;48.452;9.216;2023-03-24T12:51:13;462.03;;;171.43;;
8407;SDS011;4241;48.452;9.216;2023-03-24T12:53:52;459.17;;;168.27;;
8407;SDS011;4241;48.452;9.216;2023-03-24T12:56:30;461.57;;;170.87;;
8407;SDS011;4241;48.452;9.216;2023-03-24T12:59:01;461.87;;;172.40;;
8407;SDS011;4241;48.452;9.216;2023-03-24T13:01:34;462.77;;;172.93;;
8407;SDS011;4241;48.452;9.216;2023-03-24T13:04:06;463.73;;;175.73;;
8407;SDS011;4241;48.452;9.216;2023-03-24T13:06:38;461.27;;;171.03;;
8407;SDS011;4241;48.452;9.216;2023-03-24T13:09:12;462.03;;;171.73;;
8407;SDS011;4241;48.452;9.216;2023-03-24T13:11:46;463.27;;;173.07;;
8407;SDS011;4241;48.452;9.216;2023-03-24T13:14:21;462.10;;;171.50;;
8407;SDS011;4241;48.452;9.216;2023-03-24T13:16:52;462.93;;;173.27;;
8407;SDS011;4241;48.452;9.216;2023-03-24T13:19:25;461.77;;;171.00;;
8407;SDS011;4241;48.452;9.216;2023-03-24T13:21:52;462.13;;;171.87;;
8407;SDS011;4241;48.452;9.216;2023-03-24T13:24:21;461.00;;;170.17;;
8407;SDS011;4241;48.452;9.216;2023-03-24T13:26:52;460.87;;;169.17;;
8407;SDS011;4241;48.452;9.216;2023-03-24T13:29:30;469.33;;;174.27;;
8407;SDS011;4241;48.452;9.216;2023-03-24T13:32:23;460.17;;;165.70;;
8407;SDS011;4241;48.452;9.216;2023-03-24T13:34:56;459.80;;;166.90;;
8407;SDS011;4241;48.452;9.216;2023-03-24T13:37:31;457.70;;;164.27;;
8407;SDS011;4241;48.452;9.216;2023-03-24T13:40:05;457.40;;;163.33;;
8407;SDS011;4241;48.452;9.216;2023-03-24T13:42:36;457.87;;;161.53;;
8407;SDS011;4241;48.452;9.216;2023-03-24T13:45:20;456.90;;;160.27;;
8407;SDS011;4241;48.452;9.216;2023-03-24T13:47:54;455.27;;;158.97;;
8407;SDS011;4241;48.452;9.216;2023-03-24T13:50:50;460.77;;;162.93;;
8407;SDS011;4241;48.452;9.216;2023-03-24T13:53:25;454.97;;;159.00;;
8407;SDS011;4241;48.452;9.216;2023-03-24T13:56:00;455.80;;;158.57;;
8407;SDS011;4241;48.452;9.216;2023-03-24T13:58:43;455.60;;;158.27;;
8407;SDS011;4241;48.452;9.216;2023-03-24T14:06:48;453.83;;;156.33;;
8407;SDS011;4241;48.452;9.216;2023-03-24T14:09:16;457.87;;;159.80;;
8407;SDS011;4241;48.452;9.216;2023-03-24T14:17:43;453.23;;;153.37;;
8407;SDS011;4241;48.452;9.216;2023-03-24T14:22:59;452.97;;;153.37;;
8407;SDS011;4241;48.452;9.216;2023-03-24T14:25:28;460.17;;;160.30;;
8407;SDS011;4241;48.452;9.216;2023-03-24T14:28:08;455.37;;;155.60;;
8407;SDS011;4241;48.452;9.216;2023-03-24T14:30:54;452.57;;;152.00;;
8407;SDS011;4241;48.452;9.216;2023-03-24T14:33:29;454.43;;;153.60;;
8407;SDS011;4241;48.452;9.216;2023-03-24T14:35:56;451.67;;;150.70;;
8407;SDS011;4241;48.452;9.216;2023-03-24T14:38:35;450.13;;;150.13;;
8407;SDS011;4241;48.452;9.216;2023-03-24T14:41:07;451.80;;;151.17;;
8407;SDS011;4241;48.452;9.216;2023-03-24T14:43:56;453.27;;;152.90;;
8407;SDS011;4241;48.452;9.216;2023-03-24T14:49:21;452.13;;;150.73;;
8407;SDS011;4241;48.452;9.216;2023-03-24T14:51:55;451.33;;;149.97;;
8407;SDS011;4241;48.452;9.216;2023-03-24T14:54:27;456.70;;;154.33;;
8407;SDS011;4241;48.452;9.216;2023-03-24T14:56:59;452.53;;;152.10;;
8407;SDS011;4241;48.452;9.216;2023-03-24T14:59:34;453.57;;;153.03;;
8407;SDS011;4241;48.452;9.216;2023-03-24T15:02:12;452.27;;;151.67;;
8407;SDS011;4241;48.452;9.216;2023-03-24T15:07:43;450.77;;;150.03;;
8407;SDS011;4241;48.452;9.216;2023-03-24T15:10:22;451.90;;;152.30;;
8407;SDS011;4241;48.452;9.216;2023-03-24T15:12:49;449.50;;;148.17;;
8407;SDS011;4241;48.452;9.216;2023-03-24T15:15:17;451.53;;;151.33;;
8407;SDS011;4241;48.452;9.216;2023-03-24T15:17:47;450.17;;;150.50;;
8407;SDS011;4241;48.452;9.216;2023-03-24T15:20:20;451.07;;;150.87;;
8407;SDS011;4241;48.452;9.216;2023-03-24T15:22:49;451.13;;;150.50;;